Time;durP1;ratioP1;P1;durP2;ratioP2;P2;SDS_P1;SDS_P2;PMS_P1;PMS_P2;Temp;Humidity;BMP_temperature;BMP_pressure;BME280_temperature;BME280_humidity;BME280_pressure;Samples;Min_cycle;Max_cycle;Signal;HPM_P1;HPM_P2
2023/03/09 00:00:00;;;;;;;3.3;3.2;;;;;;;0.4;100.0;98880;;;;
2023/03/09 00:01:00;;;;;;;3.3;3.2;;;;;;;0.4;100.0;98880;;;;
2023/03/09 00:02:00;;;;;;;3.3;3.2;;;;;;;0.4;100.0;98880;;;;
2023/03/09 00:03:00;;;;;;;3.5;3.4;;;;;;;0.4;100.0;98880;;;;
2023/03/09 00:04:00;;;;;;;3.5;3.4;;;;;;;0.5;100.0;98870;;;;
2023/03/09 00:05:00;;;;;;;3.5;3.4;;;;;;;0.5;100.0;98870;;;;
2023/03/09 00:06:00;;;;;;;3.5;3.4;;;;;;;0.4;100.0;98870;;;;
2023/03/09 00:07:00;;;;;;;3.5;3.4;;;;;;;0.4;100.0;98870;;;;
2023/03/09 00:08:00;;;;;;;3.5;3.4;;;;;;;0.4;100.0;98880;;;;
2023/03/09 00:09:00;;;;;;;3.5;3.4;;;;;;;0.4;100.0;98880;;;;
2023/03/09 00:10:00;;;;;;;3.5;3.4;;;;;;;0.4;100.0;98880;;;;
2023/03/09 00:11:00;;;;;;;3.5;3.4;;;;;;;0.4;100.0;98880;;;;
2023/03/09 00:12:00;;;;;;;3.5;3.4;;;;;;;0.5;100.0;98870;;;;
2023/03/09 00:13:00;;;;;;;3.5;3.4;;;;;;;0.5;100.0;98870;;;;
2023/03/09 00:14:00;;;;;;;3.5;3.4;;;;;;;0.4;100.0;98860;;;;
2023/03/09 00:15:00;;;;;;;3.5;3.4;;;;;;;0.4;100.0;98860;;;;
2023/03/09 00:16:10;;;;;;;3.5;3.4;;;;;;;0.3;100.0;98850;;;;
2023/03/09 00:17:00;;;;;;;3.5;3.4;;;;;;;0.3;100.0;98850;;;;
2023/03/09 00:18:00;;;;;;;3.5;3.4;;;;;;;0.3;100.0;98850;;;;
2023/03/09 00:19:00;;;;;;;3.5;3.4;;;;;;;0.3;100.0;98850;;;;
2023/03/09 00:20:16;;;;;;;3.5;3.4;;;;;;;0.3;100.0;98840;;;;
2023/03/09 00:21:00;;;;;;;3.5;3.4;;;;;;;0.3;100.0;98840;;;;
2023/03/09 00:22:00;;;;;;;3.5;3.4;;;;;;;0.4;100.0;98850;;;;
2023/03/09 00:23:08;;;;;;;3.6;3.5;;;;;;;0.4;100.0;98850;;;;
2023/03/09 00:24:02;;;;;;;3.6;3.5;;;;;;;0.4;100.0;98860;;;;
2023/03/09 00:25:00;;;;;;;3.6;3.5;;;;;;;0.4;100.0;98860;;;;
2023/03/09 00:26:02;;;;;;;3.6;3.5;;;;;;;0.3;100.0;98870;;;;
2023/03/09 00:27:01;;;;;;;3.6;3.5;;;;;;;0.3;100.0;98870;;;;
2023/03/09 00:28:00;;;;;;;3.6;3.5;;;;;;;0.4;100.0;98880;;;;
2023/03/09 00:29:00;;;;;;;3.6;3.5;;;;;;;0.4;100.0;98880;;;;
2023/03/09 00:30:00;;;;;;;3.6;3.5;;;;;;;0.4;100.0;98880;;;;
2023/03/09 00:31:01;;;;;;;3.6;3.5;;;;;;;0.4;100.0;98880;;;;
2023/03/09 00:32:00;;;;;;;3.6;3.5;;;;;;;0.3;100.0;98870;;;;
2023/03/09 00:33:00;;;;;;;3.6;3.5;;;;;;;0.3;100.0;98870;;;;
2023/03/09 00:34:00;;;;;;;3.6;3.5;;;;;;;0.3;100.0;98870;;;;
2023/03/09 00:35:00;;;;;;;3.6;3.5;;;;;;;0.3;100.0;98870;;;;
2023/03/09 00:36:00;;;;;;;3.6;3.5;;;;;;;0.3;100.0;98870;;;;
2023/03/09 00:37:00;;;;;;;3.6;3.5;;;;;;;0.3;100.0;98870;;;;
2023/03/09 00:38:00;;;;;;;3.6;3.5;;;;;;;0.3;100.0;98880;;;;
2023/03/09 00:39:00;;;;;;;3.6;3.5;;;;;;;0.3;100.0;98880;;;;
2023/03/09 00:40:00;;;;;;;3.6;3.5;;;;;;;0.4;100.0;98890;;;;
2023/03/09 00:41:02;;;;;;;3.6;3.5;;;;;;;0.4;100.0;98890;;;;
2023/03/09 00:42:00;;;;;;;3.6;3.5;;;;;;;0.5;100.0;98880;;;;
2023/03/09 00:43:00;;;;;;;3.2;3.1;;;;;;;0.5;100.0;98880;;;;
2023/03/09 00:44:01;;;;;;;3.2;3.1;;;;;;;0.4;100.0;98890;;;;
2023/03/09 00:45:00;;;;;;;3.2;3.1;;;;;;;0.4;100.0;98890;;;;
2023/03/09 00:46:00;;;;;;;3.2;3.1;;;;;;;0.4;100.0;98900;;;;
2023/03/09 00:47:00;;;;;;;3.2;3.1;;;;;;;0.4;100.0;98900;;;;
2023/03/09 00:48:00;;;;;;;3.2;3.1;;;;;;;0.4;100.0;98910;;;;
2023/03/09 00:49:02;;;;;;;3.2;3.1;;;;;;;0.4;100.0;98910;;;;
2023/03/09 00:50:00;;;;;;;3.2;3.1;;;;;;;0.5;100.0;98910;;;;
2023/03/09 00:51:00;;;;;;;3.2;3.1;;;;;;;0.5;100.0;98910;;;;
2023/03/09 00:52:00;;;;;;;3.2;3.1;;;;;;;0.4;100.0;98900;;;;
2023/03/09 00:53:00;;;;;;;3.2;3.1;;;;;;;0.4;100.0;98900;;;;
2023/03/09 00:54:00;;;;;;;3.2;3.1;;;;;;;0.4;100.0;98900;;;;
2023/03/09 00:55:00;;;;;;;3.2;3.1;;;;;;;0.4;100.0;98900;;;;
2023/03/09 00:56:02;;;;;;;3.2;3.1;;;;;;;0.3;100.0;98920;;;;
2023/03/09 00:57:02;;;;;;;3.2;3.1;;;;;;;0.3;100.0;98920;;;;
2023/03/09 00:58:00;;;;;;;3.2;3.1;;;;;;;0.3;100.0;98920;;;;
2023/03/09 00:59:00;;;;;;;3.2;3.1;;;;;;;0.3;100.0;98920;;;;
2023/03/09 01:00:00;;;;;;;3.2;3.1;;;;;;;0.5;100.0;98910;;;;
2023/03/09 01:01:00;;;;;;;3.2;3.1;;;;;;;0.5;100.0;98910;;;;
2023/03/09 01:02:00;;;;;;;3.4;3.3;;;;;;;0.5;100.0;98920;;;;
2023/03/09 01:03:00;;;;;;;3.4;3.3;;;;;;;0.5;100.0;98920;;;;
2023/03/09 01:04:00;;;;;;;3.4;3.3;;;;;;;0.5;100.0;98930;;;;
2023/03/09 01:05:00;;;;;;;3.4;3.3;;;;;;;0.5;100.0;98930;;;;
2023/03/09 01:06:00;;;;;;;3.4;3.3;;;;;;;0.6;100.0;98930;;;;
2023/03/09 01:07:00;;;;;;;3.4;3.3;;;;;;;0.6;100.0;98930;;;;
2023/03/09 01:08:00;;;;;;;3.4;3.3;;;;;;;0.5;100.0;98930;;;;
2023/03/09 01:09:00;;;;;;;3.4;3.3;;;;;;;0.5;100.0;98930;;;;
2023/03/09 01:10:00;;;;;;;3.4;3.3;;;;;;;0.4;100.0;98930;;;;
2023/03/09 01:11:00;;;;;;;3.4;3.3;;;;;;;0.4;100.0;98930;;;;
2023/03/09 01:12:00;;;;;;;3.4;3.3;;;;;;;0.5;100.0;98940;;;;
2023/03/09 01:13:00;;;;;;;3.4;3.3;;;;;;;0.5;100.0;98940;;;;
2023/03/09 01:14:00;;;;;;;3.4;3.3;;;;;;;0.5;100.0;98940;;;;
2023/03/09 01:15:00;;;;;;;3.4;3.3;;;;;;;0.5;100.0;98940;;;;
2023/03/09 01:16:00;;;;;;;3.4;3.3;;;;;;;0.5;100.0;98950;;;;
2023/03/09 01:17:00;;;;;;;3.4;3.3;;;;;;;0.5;100.0;98950;;;;
2023/03/09 01:18:00;;;;;;;3.4;3.3;;;;;;;0.4;100.0;98960;;;;
2023/03/09 01:19:00;;;;;;;3.4;3.3;;;;;;;0.4;100.0;98960;;;;
2023/03/09 01:20:01;;;;;;;3.4;3.3;;;;;;;0.5;100.0;98960;;;;
2023/03/09 01:21:00;;;;;;;3.4;3.3;;;;;;;0.5;100.0;98960;;;;
2023/03/09 01:22:00;;;;;;;3.2;3.1;;;;;;;0.5;100.0;98960;;;;
2023/03/09 01:23:00;;;;;;;3.2;3.1;;;;;;;0.5;100.0;98960;;;;
2023/03/09 01:24:00;;;;;;;3.2;3.1;;;;;;;0.5;100.0;98960;;;;
2023/03/09 01:25:00;;;;;;;3.2;3.1;;;;;;;0.5;100.0;98960;;;;
2023/03/09 01:26:00;;;;;;;3.2;3.1;;;;;;;0.4;100.0;98960;;;;
2023/03/09 01:27:00;;;;;;;3.2;3.1;;;;;;;0.4;100.0;98960;;;;
2023/03/09 01:28:00;;;;;;;3.2;3.1;;;;;;;0.4;100.0;98960;;;;
2023/03/09 01:29:01;;;;;;;3.2;3.1;;;;;;;0.4;100.0;98960;;;;
2023/03/09 01:30:00;;;;;;;3.2;3.1;;;;;;;0.5;100.0;98960;;;;
2023/03/09 01:31:00;;;;;;;3.2;3.1;;;;;;;0.5;100.0;98960;;;;
2023/03/09 01:32:00;;;;;;;3.2;3.1;;;;;;;0.4;100.0;98960;;;;
2023/03/09 01:33:00;;;;;;;3.2;3.1;;;;;;;0.4;100.0;98960;;;;
2023/03/09 01:34:00;;;;;;;3.2;3.1;;;;;;;0.5;100.0;98960;;;;
2023/03/09 01:35:00;;;;;;;3.2;3.1;;;;;;;0.5;100.0;98960;;;;
2023/03/09 01:36:03;;;;;;;3.2;3.1;;;;;;;0.5;100.0;98960;;;;
2023/03/09 01:37:00;;;;;;;3.2;3.1;;;;;;;0.5;100.0;98960;;;;
2023/03/09 01:38:00;;;;;;;3.2;3.1;;;;;;;0.4;100.0;98970;;;;
2023/03/09 01:39:00;;;;;;;3.2;3.1;;;;;;;0.4;100.0;98970;;;;
2023/03/09 01:40:00;;;;;;;3.2;3.1;;;;;;;0.5;100.0;98970;;;;
2023/03/09 01:41:00;;;;;;;3.2;3.1;;;;;;;0.5;100.0;98970;;;;
2023/03/09 01:42:00;;;;;;;3.1;3.0;;;;;;;0.6;100.0;98970;;;;
2023/03/09 01:43:10;;;;;;;3.1;3.0;;;;;;;0.6;100.0;98970;;;;
2023/03/09 01:44:00;;;;;;;3.1;3.0;;;;;;;0.5;100.0;98970;;;;
2023/03/09 01:45:10;;;;;;;3.1;3.0;;;;;;;0.5;100.0;98970;;;;
2023/03/09 01:46:10;;;;;;;3.1;3.0;;;;;;;0.4;100.0;98980;;;;
2023/03/09 01:47:00;;;;;;;3.1;3.0;;;;;;;0.4;100.0;98980;;;;
2023/03/09 01:48:00;;;;;;;3.1;3.0;;;;;;;0.4;100.0;98990;;;;
2023/03/09 01:49:05;;;;;;;3.1;3.0;;;;;;;0.4;100.0;98990;;;;
2023/03/09 01:50:02;;;;;;;3.1;3.0;;;;;;;0.5;100.0;98980;;;;
2023/03/09 01:51:00;;;;;;;3.1;3.0;;;;;;;0.5;100.0;98980;;;;
2023/03/09 01:52:00;;;;;;;3.1;3.0;;;;;;;0.5;100.0;98980;;;;
2023/03/09 01:53:02;;;;;;;3.1;3.0;;;;;;;0.5;100.0;98980;;;;
2023/03/09 01:54:02;;;;;;;3.1;3.0;;;;;;;0.6;100.0;98980;;;;
2023/03/09 01:55:02;;;;;;;3.1;3.0;;;;;;;0.6;100.0;98980;;;;
2023/03/09 01:56:01;;;;;;;3.1;3.0;;;;;;;0.6;100.0;98990;;;;
2023/03/09 01:57:04;;;;;;;3.1;3.0;;;;;;;0.6;100.0;98990;;;;
2023/03/09 01:58:04;;;;;;;3.1;3.0;;;;;;;0.6;100.0;98990;;;;
2023/03/09 01:59:01;;;;;;;3.1;3.0;;;;;;;0.6;100.0;98990;;;;
2023/03/09 02:00:05;;;;;;;3.1;3.0;;;;;;;0.6;100.0;99000;;;;
2023/03/09 02:01:00;;;;;;;3.1;3.0;;;;;;;0.6;100.0;99000;;;;
2023/03/09 02:02:01;;;;;;;3.1;3.0;;;;;;;0.7;100.0;99010;;;;
2023/03/09 02:03:03;;;;;;;3.1;3.0;;;;;;;0.7;100.0;99010;;;;
2023/03/09 02:04:03;;;;;;;3.1;3.0;;;;;;;0.7;100.0;99000;;;;
2023/03/09 02:05:03;;;;;;;3.1;3.0;;;;;;;0.7;100.0;99000;;;;
2023/03/09 02:06:10;;;;;;;3.1;3.0;;;;;;;0.7;100.0;99000;;;;
2023/03/09 02:07:00;;;;;;;3.1;3.0;;;;;;;0.7;100.0;99000;;;;
2023/03/09 02:08:00;;;;;;;3.1;3.0;;;;;;;0.7;100.0;99010;;;;
2023/03/09 02:09:05;;;;;;;3.1;3.0;;;;;;;0.7;100.0;99010;;;;
2023/03/09 02:10:07;;;;;;;3.1;3.0;;;;;;;0.7;100.0;99020;;;;
2023/03/09 02:11:03;;;;;;;3.1;3.0;;;;;;;0.7;100.0;99020;;;;
2023/03/09 02:12:00;;;;;;;3.1;3.0;;;;;;;0.7;100.0;99020;;;;
2023/03/09 02:13:03;;;;;;;3.1;3.0;;;;;;;0.7;100.0;99020;;;;
2023/03/09 02:14:01;;;;;;;3.1;3.0;;;;;;;0.7;100.0;99020;;;;
2023/03/09 02:15:01;;;;;;;3.1;3.0;;;;;;;0.7;100.0;99020;;;;
2023/03/09 02:16:00;;;;;;;3.1;3.0;;;;;;;0.8;100.0;99010;;;;
2023/03/09 02:17:00;;;;;;;3.1;3.0;;;;;;;0.8;100.0;99010;;;;
2023/03/09 02:18:00;;;;;;;3.1;3.0;;;;;;;0.8;100.0;99020;;;;
2023/03/09 02:19:00;;;;;;;3.1;3.0;;;;;;;0.8;100.0;99020;;;;
2023/03/09 02:20:03;;;;;;;3.1;3.0;;;;;;;0.7;100.0;99020;;;;
2023/03/09 02:21:07;;;;;;;3.1;3.0;;;;;;;0.7;100.0;99020;;;;
2023/03/09 02:22:00;;;;;;;3.3;3.2;;;;;;;0.9;100.0;99030;;;;
2023/03/09 02:23:07;;;;;;;3.3;3.2;;;;;;;0.9;100.0;99030;;;;
2023/03/09 02:24:05;;;;;;;3.3;3.2;;;;;;;0.8;100.0;99030;;;;
2023/03/09 02:25:06;;;;;;;3.3;3.2;;;;;;;0.8;100.0;99030;;;;
2023/03/09 02:26:07;;;;;;;3.3;3.2;;;;;;;0.8;100.0;99030;;;;
2023/03/09 02:27:02;;;;;;;3.3;3.2;;;;;;;0.8;100.0;99030;;;;
2023/03/09 02:28:02;;;;;;;3.3;3.2;;;;;;;0.8;100.0;99040;;;;
2023/03/09 02:29:00;;;;;;;3.3;3.2;;;;;;;0.8;100.0;99040;;;;
2023/03/09 02:30:01;;;;;;;3.3;3.2;;;;;;;0.8;100.0;99040;;;;
2023/03/09 02:31:00;;;;;;;3.3;3.2;;;;;;;0.8;100.0;99040;;;;
2023/03/09 02:32:00;;;;;;;3.3;3.2;;;;;;;0.9;100.0;99040;;;;
2023/03/09 02:33:04;;;;;;;3.3;3.2;;;;;;;0.9;100.0;99040;;;;
2023/03/09 02:34:00;;;;;;;3.3;3.2;;;;;;;0.9;100.0;99040;;;;
2023/03/09 02:35:00;;;;;;;3.3;3.2;;;;;;;0.9;100.0;99040;;;;
2023/03/09 02:36:01;;;;;;;3.3;3.2;;;;;;;1.0;100.0;99050;;;;
2023/03/09 02:37:00;;;;;;;3.3;3.2;;;;;;;1.0;100.0;99050;;;;
2023/03/09 02:38:00;;;;;;;3.3;3.2;;;;;;;0.9;100.0;99060;;;;
2023/03/09 02:39:06;;;;;;;3.3;3.2;;;;;;;0.9;100.0;99060;;;;
2023/03/09 02:40:05;;;;;;;3.3;3.2;;;;;;;0.9;100.0;99070;;;;
2023/03/09 02:41:02;;;;;;;3.3;3.2;;;;;;;0.9;100.0;99070;;;;
2023/03/09 02:42:02;;;;;;;3.8;3.6;;;;;;;1.0;100.0;99070;;;;
2023/03/09 02:43:02;;;;;;;3.8;3.6;;;;;;;1.0;100.0;99070;;;;
2023/03/09 02:44:00;;;;;;;3.8;3.6;;;;;;;1.0;100.0;99070;;;;
2023/03/09 02:45:00;;;;;;;3.8;3.6;;;;;;;1.0;100.0;99070;;;;
2023/03/09 02:46:00;;;;;;;3.8;3.6;;;;;;;1.0;100.0;99070;;;;
2023/03/09 02:47:01;;;;;;;3.8;3.6;;;;;;;1.0;100.0;99070;;;;
2023/03/09 02:48:00;;;;;;;3.8;3.6;;;;;;;0.9;100.0;99050;;;;
2023/03/09 02:49:00;;;;;;;3.8;3.6;;;;;;;0.9;100.0;99050;;;;
2023/03/09 02:50:00;;;;;;;3.8;3.6;;;;;;;0.9;100.0;99050;;;;
2023/03/09 02:51:00;;;;;;;3.8;3.6;;;;;;;0.9;100.0;99050;;;;
2023/03/09 02:52:01;;;;;;;3.8;3.6;;;;;;;0.8;100.0;99050;;;;
2023/03/09 02:53:00;;;;;;;3.8;3.6;;;;;;;0.8;100.0;99050;;;;
2023/03/09 02:54:00;;;;;;;3.8;3.6;;;;;;;0.9;100.0;99060;;;;
2023/03/09 02:55:00;;;;;;;3.8;3.6;;;;;;;0.9;100.0;99060;;;;
2023/03/09 02:56:00;;;;;;;3.8;3.6;;;;;;;0.8;100.0;99060;;;;
2023/03/09 02:57:00;;;;;;;3.8;3.6;;;;;;;0.8;100.0;99060;;;;
2023/03/09 02:58:00;;;;;;;3.8;3.6;;;;;;;0.8;100.0;99060;;;;
2023/03/09 02:59:02;;;;;;;3.8;3.6;;;;;;;0.8;100.0;99060;;;;
2023/03/09 03:00:00;;;;;;;3.8;3.6;;;;;;;0.9;100.0;99060;;;;
2023/03/09 03:01:00;;;;;;;3.8;3.6;;;;;;;0.9;100.0;99060;;;;
2023/03/09 03:02:00;;;;;;;3.1;3.0;;;;;;;0.9;100.0;99060;;;;
2023/03/09 03:03:00;;;;;;;3.1;3.0;;;;;;;0.9;100.0;99060;;;;
2023/03/09 03:04:00;;;;;;;3.1;3.0;;;;;;;0.8;100.0;99060;;;;
2023/03/09 03:05:00;;;;;;;3.1;3.0;;;;;;;0.8;100.0;99060;;;;
2023/03/09 03:06:00;;;;;;;3.1;3.0;;;;;;;0.8;100.0;99060;;;;
2023/03/09 03:07:00;;;;;;;3.1;3.0;;;;;;;0.8;100.0;99060;;;;
2023/03/09 03:08:00;;;;;;;3.1;3.0;;;;;;;0.8;100.0;99060;;;;
2023/03/09 03:09:00;;;;;;;3.1;3.0;;;;;;;0.8;100.0;99060;;;;
2023/03/09 03:10:00;;;;;;;3.1;3.0;;;;;;;0.9;100.0;99060;;;;
2023/03/09 03:11:00;;;;;;;3.1;3.0;;;;;;;0.9;100.0;99060;;;;
2023/03/09 03:12:00;;;;;;;3.1;3.0;;;;;;;0.8;100.0;99070;;;;
2023/03/09 03:13:00;;;;;;;3.1;3.0;;;;;;;0.8;100.0;99070;;;;
2023/03/09 03:14:00;;;;;;;3.1;3.0;;;;;;;0.9;100.0;99070;;;;
2023/03/09 03:15:00;;;;;;;3.1;3.0;;;;;;;0.9;100.0;99070;;;;
2023/03/09 03:16:01;;;;;;;3.1;3.0;;;;;;;0.9;100.0;99070;;;;
2023/03/09 03:17:00;;;;;;;3.1;3.0;;;;;;;0.9;100.0;99070;;;;
2023/03/09 03:18:00;;;;;;;3.1;3.0;;;;;;;0.9;100.0;99070;;;;
2023/03/09 03:19:00;;;;;;;3.1;3.0;;;;;;;0.9;100.0;99070;;;;
2023/03/09 03:20:00;;;;;;;3.1;3.0;;;;;;;0.8;100.0;99080;;;;
2023/03/09 03:21:01;;;;;;;3.1;3.0;;;;;;;0.8;100.0;99080;;;;
2023/03/09 03:22:00;;;;;;;3.2;3.1;;;;;;;0.8;100.0;99080;;;;
2023/03/09 03:23:00;;;;;;;3.2;3.1;;;;;;;0.8;100.0;99080;;;;
2023/03/09 03:24:00;;;;;;;3.2;3.1;;;;;;;0.9;100.0;99090;;;;
2023/03/09 03:25:00;;;;;;;3.2;3.1;;;;;;;0.9;100.0;99090;;;;
2023/03/09 03:26:04;;;;;;;3.2;3.1;;;;;;;0.9;100.0;99090;;;;
2023/03/09 03:27:00;;;;;;;3.2;3.1;;;;;;;0.9;100.0;99090;;;;
2023/03/09 03:28:00;;;;;;;3.2;3.1;;;;;;;0.9;100.0;99100;;;;
2023/03/09 03:29:00;;;;;;;3.2;3.1;;;;;;;0.9;100.0;99100;;;;
2023/03/09 03:30:00;;;;;;;3.2;3.1;;;;;;;0.9;100.0;99100;;;;
2023/03/09 03:31:00;;;;;;;3.2;3.1;;;;;;;0.9;100.0;99100;;;;
2023/03/09 03:32:00;;;;;;;3.2;3.1;;;;;;;0.9;100.0;99100;;;;
2023/03/09 03:33:00;;;;;;;3.2;3.1;;;;;;;0.9;100.0;99100;;;;
2023/03/09 03:34:00;;;;;;;3.2;3.1;;;;;;;0.8;100.0;99090;;;;
2023/03/09 03:35:00;;;;;;;3.2;3.1;;;;;;;0.8;100.0;99090;;;;
2023/03/09 03:36:00;;;;;;;3.2;3.1;;;;;;;0.8;100.0;99100;;;;
2023/03/09 03:37:00;;;;;;;3.2;3.1;;;;;;;0.8;100.0;99100;;;;
2023/03/09 03:38:00;;;;;;;3.2;3.1;;;;;;;0.8;100.0;99100;;;;
2023/03/09 03:39:00;;;;;;;3.2;3.1;;;;;;;0.8;100.0;99100;;;;
2023/03/09 03:40:00;;;;;;;3.2;3.1;;;;;;;0.8;100.0;99100;;;;
2023/03/09 03:41:00;;;;;;;3.2;3.1;;;;;;;0.8;100.0;99100;;;;
2023/03/09 03:42:00;;;;;;;3.1;3.0;;;;;;;0.8;100.0;99100;;;;
2023/03/09 03:43:00;;;;;;;3.1;3.0;;;;;;;0.8;100.0;99100;;;;
2023/03/09 03:44:00;;;;;;;3.1;3.0;;;;;;;0.9;100.0;99110;;;;
2023/03/09 03:45:00;;;;;;;3.1;3.0;;;;;;;0.9;100.0;99110;;;;
2023/03/09 03:46:00;;;;;;;3.1;3.0;;;;;;;0.9;100.0;99120;;;;
2023/03/09 03:47:00;;;;;;;3.1;3.0;;;;;;;0.9;100.0;99120;;;;
2023/03/09 03:48:00;;;;;;;3.1;3.0;;;;;;;0.9;100.0;99130;;;;
2023/03/09 03:49:00;;;;;;;3.1;3.0;;;;;;;0.9;100.0;99130;;;;
2023/03/09 03:50:00;;;;;;;3.1;3.0;;;;;;;0.9;100.0;99140;;;;
2023/03/09 03:51:00;;;;;;;3.1;3.0;;;;;;;0.9;100.0;99140;;;;
2023/03/09 03:52:00;;;;;;;3.1;3.0;;;;;;;0.9;100.0;99140;;;;
2023/03/09 03:53:00;;;;;;;3.1;3.0;;;;;;;0.9;100.0;99140;;;;
2023/03/09 03:54:00;;;;;;;3.1;3.0;;;;;;;0.8;100.0;99120;;;;
2023/03/09 03:55:00;;;;;;;3.1;3.0;;;;;;;0.8;100.0;99120;;;;
2023/03/09 03:56:00;;;;;;;3.1;3.0;;;;;;;0.8;100.0;99130;;;;
2023/03/09 03:57:01;;;;;;;3.1;3.0;;;;;;;0.8;100.0;99130;;;;
2023/03/09 03:58:00;;;;;;;3.1;3.0;;;;;;;0.7;100.0;99140;;;;
2023/03/09 03:59:00;;;;;;;3.1;3.0;;;;;;;0.7;100.0;99140;;;;
2023/03/09 04:00:00;;;;;;;3.1;3.0;;;;;;;0.7;100.0;99140;;;;
2023/03/09 04:01:00;;;;;;;3.1;3.0;;;;;;;0.7;100.0;99140;;;;
2023/03/09 04:02:00;;;;;;;3.2;3.1;;;;;;;0.8;100.0;99140;;;;
2023/03/09 04:03:00;;;;;;;3.2;3.1;;;;;;;0.8;100.0;99140;;;;
2023/03/09 04:04:00;;;;;;;3.2;3.1;;;;;;;0.7;100.0;99150;;;;
2023/03/09 04:05:00;;;;;;;3.2;3.1;;;;;;;0.7;100.0;99150;;;;
2023/03/09 04:06:02;;;;;;;3.2;3.1;;;;;;;0.7;100.0;99150;;;;
2023/03/09 04:07:00;;;;;;;3.2;3.1;;;;;;;0.7;100.0;99150;;;;
2023/03/09 04:08:00;;;;;;;3.2;3.1;;;;;;;0.7;100.0;99160;;;;
2023/03/09 04:09:00;;;;;;;3.2;3.1;;;;;;;0.7;100.0;99160;;;;
2023/03/09 04:10:00;;;;;;;3.2;3.1;;;;;;;0.8;100.0;99160;;;;
2023/03/09 04:11:04;;;;;;;3.2;3.1;;;;;;;0.8;100.0;99160;;;;
2023/03/09 04:12:00;;;;;;;3.2;3.1;;;;;;;0.6;100.0;99160;;;;
2023/03/09 04:13:00;;;;;;;3.2;3.1;;;;;;;0.6;100.0;99160;;;;
2023/03/09 04:14:01;;;;;;;3.2;3.1;;;;;;;0.6;100.0;99160;;;;
2023/03/09 04:15:00;;;;;;;3.2;3.1;;;;;;;0.6;100.0;99160;;;;
2023/03/09 04:16:00;;;;;;;3.2;3.1;;;;;;;0.7;100.0;99160;;;;
2023/03/09 04:17:00;;;;;;;3.2;3.1;;;;;;;0.7;100.0;99160;;;;
2023/03/09 04:18:00;;;;;;;3.2;3.1;;;;;;;0.7;100.0;99160;;;;
2023/03/09 04:19:00;;;;;;;3.2;3.1;;;;;;;0.7;100.0;99160;;;;
2023/03/09 04:20:00;;;;;;;3.2;3.1;;;;;;;0.7;100.0;99170;;;;
2023/03/09 04:21:00;;;;;;;3.6;3.5;;;;;;;0.7;100.0;99170;;;;
2023/03/09 04:22:00;;;;;;;3.6;3.5;;;;;;;0.7;100.0;99170;;;;
2023/03/09 04:23:00;;;;;;;3.6;3.5;;;;;;;0.7;100.0;99170;;;;
2023/03/09 04:24:01;;;;;;;3.6;3.5;;;;;;;0.8;100.0;99180;;;;
2023/03/09 04:25:00;;;;;;;3.6;3.5;;;;;;;0.8;100.0;99180;;;;
2023/03/09 04:26:01;;;;;;;3.6;3.5;;;;;;;0.6;100.0;99200;;;;
2023/03/09 04:27:00;;;;;;;3.6;3.5;;;;;;;0.6;100.0;99200;;;;
2023/03/09 04:28:00;;;;;;;3.6;3.5;;;;;;;0.7;100.0;99200;;;;
2023/03/09 04:29:00;;;;;;;3.6;3.5;;;;;;;0.7;100.0;99200;;;;
2023/03/09 04:30:00;;;;;;;3.6;3.5;;;;;;;0.7;100.0;99190;;;;
2023/03/09 04:31:00;;;;;;;3.6;3.5;;;;;;;0.7;100.0;99190;;;;
2023/03/09 04:32:00;;;;;;;3.6;3.5;;;;;;;0.8;100.0;99200;;;;
2023/03/09 04:33:00;;;;;;;3.6;3.5;;;;;;;0.8;100.0;99200;;;;
2023/03/09 04:34:00;;;;;;;3.6;3.5;;;;;;;0.8;100.0;99190;;;;
2023/03/09 04:35:00;;;;;;;3.6;3.5;;;;;;;0.8;100.0;99190;;;;
2023/03/09 04:36:00;;;;;;;3.6;3.5;;;;;;;0.8;100.0;99180;;;;
2023/03/09 04:37:00;;;;;;;3.6;3.5;;;;;;;0.8;100.0;99180;;;;
2023/03/09 04:38:00;;;;;;;3.6;3.5;;;;;;;0.8;100.0;99190;;;;
2023/03/09 04:39:00;;;;;;;3.6;3.5;;;;;;;0.8;100.0;99190;;;;
2023/03/09 04:40:00;;;;;;;3.6;3.5;;;;;;;0.8;100.0;99200;;;;
2023/03/09 04:41:00;;;;;;;3.2;3.1;;;;;;;0.8;100.0;99200;;;;
2023/03/09 04:42:00;;;;;;;3.2;3.1;;;;;;;0.8;100.0;99200;;;;
2023/03/09 04:43:00;;;;;;;3.2;3.1;;;;;;;0.8;100.0;99200;;;;
2023/03/09 04:44:00;;;;;;;3.2;3.1;;;;;;;0.7;100.0;99210;;;;
2023/03/09 04:45:00;;;;;;;3.2;3.1;;;;;;;0.7;100.0;99210;;;;
2023/03/09 04:46:00;;;;;;;3.2;3.1;;;;;;;0.7;100.0;99210;;;;
2023/03/09 04:47:00;;;;;;;3.2;3.1;;;;;;;0.7;100.0;99210;;;;
2023/03/09 04:48:00;;;;;;;3.2;3.1;;;;;;;0.7;100.0;99200;;;;
2023/03/09 04:49:00;;;;;;;3.2;3.1;;;;;;;0.7;100.0;99200;;;;
2023/03/09 04:50:00;;;;;;;3.2;3.1;;;;;;;0.6;100.0;99210;;;;
2023/03/09 04:51:00;;;;;;;3.2;3.1;;;;;;;0.6;100.0;99210;;;;
2023/03/09 04:52:00;;;;;;;3.2;3.1;;;;;;;0.6;100.0;99210;;;;
2023/03/09 04:53:00;;;;;;;3.2;3.1;;;;;;;0.6;100.0;99210;;;;
2023/03/09 04:54:00;;;;;;;3.2;3.1;;;;;;;0.6;100.0;99210;;;;
2023/03/09 04:55:00;;;;;;;3.2;3.1;;;;;;;0.6;100.0;99210;;;;
2023/03/09 04:56:00;;;;;;;3.2;3.1;;;;;;;0.6;100.0;99200;;;;
2023/03/09 04:57:00;;;;;;;3.2;3.1;;;;;;;0.6;100.0;99200;;;;
2023/03/09 04:58:00;;;;;;;3.2;3.1;;;;;;;0.6;100.0;99210;;;;
2023/03/09 04:59:00;;;;;;;3.2;3.1;;;;;;;0.6;100.0;99210;;;;
2023/03/09 05:00:00;;;;;;;3.2;3.1;;;;;;;0.6;100.0;99220;;;;
2023/03/09 05:01:01;;;;;;;3.1;3.0;;;;;;;0.6;100.0;99220;;;;
2023/03/09 05:02:00;;;;;;;3.1;3.0;;;;;;;0.6;100.0;99230;;;;
2023/03/09 05:03:00;;;;;;;3.1;3.0;;;;;;;0.6;100.0;99230;;;;
2023/03/09 05:04:00;;;;;;;3.1;3.0;;;;;;;0.7;100.0;99240;;;;
2023/03/09 05:05:00;;;;;;;3.1;3.0;;;;;;;0.7;100.0;99240;;;;
2023/03/09 05:06:00;;;;;;;3.1;3.0;;;;;;;0.7;100.0;99240;;;;
2023/03/09 05:07:00;;;;;;;3.1;3.0;;;;;;;0.7;100.0;99240;;;;
2023/03/09 05:08:00;;;;;;;3.1;3.0;;;;;;;0.7;100.0;99240;;;;
2023/03/09 05:09:03;;;;;;;3.1;3.0;;;;;;;0.7;100.0;99240;;;;
2023/03/09 05:10:00;;;;;;;3.1;3.0;;;;;;;0.8;100.0;99240;;;;
2023/03/09 05:11:00;;;;;;;3.1;3.0;;;;;;;0.8;100.0;99240;;;;
2023/03/09 05:12:00;;;;;;;3.1;3.0;;;;;;;0.8;100.0;99240;;;;
2023/03/09 05:13:00;;;;;;;3.1;3.0;;;;;;;0.8;100.0;99240;;;;
2023/03/09 05:14:00;;;;;;;3.1;3.0;;;;;;;0.7;100.0;99240;;;;
2023/03/09 05:15:00;;;;;;;3.1;3.0;;;;;;;0.7;100.0;99240;;;;
2023/03/09 05:16:03;;;;;;;3.1;3.0;;;;;;;0.7;100.0;99240;;;;
2023/03/09 05:17:00;;;;;;;3.1;3.0;;;;;;;0.7;100.0;99240;;;;
2023/03/09 05:18:00;;;;;;;3.1;3.0;;;;;;;0.6;100.0;99250;;;;
2023/03/09 05:19:00;;;;;;;3.1;3.0;;;;;;;0.6;100.0;99250;;;;
2023/03/09 05:20:00;;;;;;;3.1;3.0;;;;;;;0.7;100.0;99260;;;;
2023/03/09 05:21:03;;;;;;;3.5;3.4;;;;;;;0.7;100.0;99260;;;;
2023/03/09 05:22:00;;;;;;;3.5;3.4;;;;;;;0.7;100.0;99260;;;;
2023/03/09 05:23:01;;;;;;;3.5;3.4;;;;;;;0.7;100.0;99260;;;;
2023/03/09 05:24:00;;;;;;;3.5;3.4;;;;;;;0.7;100.0;99270;;;;
2023/03/09 05:25:00;;;;;;;3.5;3.4;;;;;;;0.7;100.0;99270;;;;
2023/03/09 05:26:01;;;;;;;3.5;3.4;;;;;;;0.8;100.0;99260;;;;
2023/03/09 05:27:00;;;;;;;3.5;3.4;;;;;;;0.8;100.0;99260;;;;
2023/03/09 05:28:00;;;;;;;3.5;3.4;;;;;;;0.8;100.0;99250;;;;
2023/03/09 05:29:00;;;;;;;3.5;3.4;;;;;;;0.8;100.0;99250;;;;
2023/03/09 05:30:00;;;;;;;3.5;3.4;;;;;;;0.7;100.0;99250;;;;
2023/03/09 05:31:01;;;;;;;3.5;3.4;;;;;;;0.7;100.0;99250;;;;
2023/03/09 05:32:00;;;;;;;3.5;3.4;;;;;;;0.7;100.0;99260;;;;
2023/03/09 05:33:00;;;;;;;3.5;3.4;;;;;;;0.7;100.0;99260;;;;
2023/03/09 05:34:00;;;;;;;3.5;3.4;;;;;;;0.6;100.0;99260;;;;
2023/03/09 05:35:00;;;;;;;3.5;3.4;;;;;;;0.6;100.0;99260;;;;
2023/03/09 05:36:00;;;;;;;3.5;3.4;;;;;;;0.6;100.0;99250;;;;
2023/03/09 05:37:01;;;;;;;3.5;3.4;;;;;;;0.6;100.0;99250;;;;
2023/03/09 05:38:00;;;;;;;3.5;3.4;;;;;;;0.7;100.0;99250;;;;
2023/03/09 05:39:00;;;;;;;3.5;3.4;;;;;;;0.7;100.0;99250;;;;
2023/03/09 05:40:00;;;;;;;3.5;3.4;;;;;;;0.6;100.0;99250;;;;
2023/03/09 05:41:04;;;;;;;3.1;3.0;;;;;;;0.6;100.0;99250;;;;
2023/03/09 05:42:00;;;;;;;3.1;3.0;;;;;;;0.6;100.0;99240;;;;
2023/03/09 05:43:00;;;;;;;3.1;3.0;;;;;;;0.6;100.0;99240;;;;
2023/03/09 05:44:00;;;;;;;3.1;3.0;;;;;;;0.7;100.0;99240;;;;
2023/03/09 05:45:02;;;;;;;3.1;3.0;;;;;;;0.7;100.0;99240;;;;
2023/03/09 05:46:00;;;;;;;3.1;3.0;;;;;;;0.6;100.0;99240;;;;
2023/03/09 05:47:00;;;;;;;3.1;3.0;;;;;;;0.6;100.0;99240;;;;
2023/03/09 05:48:00;;;;;;;3.1;3.0;;;;;;;0.6;100.0;99250;;;;
2023/03/09 05:49:00;;;;;;;3.1;3.0;;;;;;;0.6;100.0;99250;;;;
2023/03/09 05:50:00;;;;;;;3.1;3.0;;;;;;;0.7;100.0;99250;;;;
2023/03/09 05:51:00;;;;;;;3.1;3.0;;;;;;;0.7;100.0;99250;;;;
2023/03/09 05:52:00;;;;;;;3.1;3.0;;;;;;;0.7;100.0;99240;;;;
2023/03/09 05:53:02;;;;;;;3.1;3.0;;;;;;;0.7;100.0;99240;;;;
2023/03/09 05:54:00;;;;;;;3.1;3.0;;;;;;;0.7;100.0;99250;;;;
2023/03/09 05:55:00;;;;;;;3.1;3.0;;;;;;;0.7;100.0;99250;;;;
2023/03/09 05:56:01;;;;;;;3.1;3.0;;;;;;;0.6;100.0;99250;;;;
2023/03/09 05:57:00;;;;;;;3.1;3.0;;;;;;;0.6;100.0;99250;;;;
2023/03/09 05:58:00;;;;;;;3.1;3.0;;;;;;;0.6;100.0;99250;;;;
2023/03/09 05:59:00;;;;;;;3.1;3.0;;;;;;;0.6;100.0;99250;;;;
2023/03/09 06:00:00;;;;;;;3.1;3.0;;;;;;;0.7;100.0;99250;;;;
2023/03/09 06:01:01;;;;;;;3.1;3.0;;;;;;;0.7;100.0;99250;;;;
2023/03/09 06:02:00;;;;;;;3.1;3.0;;;;;;;0.7;100.0;99260;;;;
2023/03/09 06:03:00;;;;;;;3.1;3.0;;;;;;;0.7;100.0;99260;;;;
2023/03/09 06:04:00;;;;;;;3.1;3.0;;;;;;;0.7;100.0;99250;;;;
2023/03/09 06:05:00;;;;;;;3.1;3.0;;;;;;;0.7;100.0;99250;;;;
2023/03/09 06:06:01;;;;;;;3.1;3.0;;;;;;;0.6;100.0;99260;;;;
2023/03/09 06:07:00;;;;;;;3.1;3.0;;;;;;;0.6;100.0;99260;;;;
2023/03/09 06:08:00;;;;;;;3.1;3.0;;;;;;;0.8;100.0;99280;;;;
2023/03/09 06:09:00;;;;;;;3.1;3.0;;;;;;;0.8;100.0;99280;;;;
2023/03/09 06:10:00;;;;;;;3.1;3.0;;;;;;;0.7;100.0;99280;;;;
2023/03/09 06:11:00;;;;;;;3.1;3.0;;;;;;;0.7;100.0;99280;;;;
2023/03/09 06:12:00;;;;;;;3.1;3.0;;;;;;;0.8;100.0;99280;;;;
2023/03/09 06:13:00;;;;;;;3.1;3.0;;;;;;;0.8;100.0;99280;;;;
2023/03/09 06:14:00;;;;;;;3.1;3.0;;;;;;;0.7;100.0;99290;;;;
2023/03/09 06:15:00;;;;;;;3.1;3.0;;;;;;;0.7;100.0;99290;;;;
2023/03/09 06:16:02;;;;;;;3.1;3.0;;;;;;;0.7;100.0;99290;;;;
2023/03/09 06:17:01;;;;;;;3.1;3.0;;;;;;;0.7;100.0;99290;;;;
2023/03/09 06:18:00;;;;;;;3.1;3.0;;;;;;;0.8;100.0;99290;;;;
2023/03/09 06:19:00;;;;;;;3.1;3.0;;;;;;;0.8;100.0;99290;;;;
2023/03/09 06:20:00;;;;;;;3.1;3.0;;;;;;;0.8;100.0;99290;;;;
2023/03/09 06:21:01;;;;;;;2.9;2.8;;;;;;;0.8;100.0;99290;;;;
2023/03/09 06:22:00;;;;;;;2.9;2.8;;;;;;;0.8;100.0;99300;;;;
2023/03/09 06:23:00;;;;;;;2.9;2.8;;;;;;;0.8;100.0;99300;;;;
2023/03/09 06:24:00;;;;;;;2.9;2.8;;;;;;;0.9;100.0;99300;;;;
2023/03/09 06:25:02;;;;;;;2.9;2.8;;;;;;;0.9;100.0;99300;;;;
2023/03/09 06:26:01;;;;;;;2.9;2.8;;;;;;;0.8;100.0;99300;;;;
2023/03/09 06:27:00;;;;;;;2.9;2.8;;;;;;;0.8;100.0;99300;;;;
2023/03/09 06:28:00;;;;;;;2.9;2.8;;;;;;;0.8;100.0;99300;;;;
2023/03/09 06:29:00;;;;;;;2.9;2.8;;;;;;;0.8;100.0;99300;;;;
2023/03/09 06:30:00;;;;;;;2.9;2.8;;;;;;;0.8;100.0;99310;;;;
2023/03/09 06:31:05;;;;;;;2.9;2.8;;;;;;;0.8;100.0;99310;;;;
2023/03/09 06:32:00;;;;;;;2.9;2.8;;;;;;;0.8;100.0;99310;;;;
2023/03/09 06:33:00;;;;;;;2.9;2.8;;;;;;;0.8;100.0;99310;;;;
2023/03/09 06:34:00;;;;;;;2.9;2.8;;;;;;;0.8;100.0;99320;;;;
2023/03/09 06:35:00;;;;;;;2.9;2.8;;;;;;;0.8;100.0;99320;;;;